Terminal Aerodrome Forecast
Issued by NWS

Home | Current Version | Previous Version | Text Only | Print | Product List | Glossary On
Versions: 1 2 3 4 5 6 7 8 9 10 11 12 13 14 15 16 17 18 19 20 21 22 23 24 25 26 27 28 29
000
FTUS41 KBUF 181736 AAC
TAFJHW
TAF AMD
KJHW 181736Z 1818/1918 23012KT 5SM -SN BKN018
     FM182100 24010KT P6SM BKN025
     FM191100 22009KT P6SM BKN015
     FM191400 22010KT P6SM BKN025
     FM191700 22011KT P6SM SCT025
      AMD LTD TO CLD VIS AND WIND=

USA.gov is the U.S. government's official web portal to all federal, state and local government web resources and services.